Time;durP1;ratioP1;P1;durP2;ratioP2;P2;SDS_P1;SDS_P2;PMS_P1;PMS_P2;Temp;Humidity;BMP_temperature;BMP_pressure;BME280_temperature;BME280_humidity;BME280_pressure;Samples;Min_cycle;Max_cycle;Signal;HPM_P1;HPM_P2
2022/03/23 00:00:32;;;;;;;;;;;;;;;17.30;53.05;100667.09;2085865;28;19962;-48
2022/03/23 00:01:34;;;;;;;;;;;;;;;17.31;53.07;100655.19;2079432;28;19921;-51
2022/03/23 00:02:36;;;;;;;;;;;;;;;17.30;53.10;100664.38;2087001;28;19908;-48
2022/03/23 00:03:37;;;;;;;;;;;;;;;17.30;53.07;100661.66;2082906;28;19921;-49
2022/03/23 00:04:39;;;;;;;;;;;;;;;17.30;53.04;100662.50;2082577;28;19913;-49
2022/03/23 00:05:41;;;;;;;;;;;;;;;17.29;52.88;100665.34;2081668;28;20309;-48
2022/03/23 00:06:42;;;;;;;;;;;;;;;17.30;53.01;100662.50;2080765;28;20157;-49
2022/03/23 00:07:43;;;;;;;;;;;;;;;17.30;53.02;100661.66;2084866;28;20362;-47
2022/03/23 00:08:44;;;;;;;;;;;;;;;17.28;53.33;100666.34;2081970;28;19921;-50
2022/03/23 00:09:44;;;;;;;;;;;;;;;17.28;53.01;100663.63;2079153;28;20467;-49
2022/03/23 00:10:44;;;;;;;;;;;;;;;17.29;53.12;100660.75;2086210;28;19916;-48
2022/03/23 00:11:45;;;;;;;;;;;;;;;17.28;53.07;100663.63;2082795;28;19944;-48
2022/03/23 00:12:45;;;;;;;;;;;;;;;17.28;53.06;100666.34;2087558;28;19920;-50
2022/03/23 00:13:46;;;;;;;;;;;;;;;17.27;53.06;100662.75;2087599;28;19920;-49
2022/03/23 00:14:46;;;;;;;;;;;;;;;17.27;53.17;100664.59;2088584;28;20778;-47
2022/03/23 00:15:47;;;;;;;;;;;;;;;17.27;52.98;100662.75;2090301;28;19941;-50
2022/03/23 00:16:47;;;;;;;;;;;;;;;17.28;53.29;100663.63;2092052;28;19931;-51
2022/03/23 00:17:47;;;;;;;;;;;;;;;17.27;53.26;100667.31;2089949;28;19944;-48
2022/03/23 00:18:48;;;;;;;;;;;;;;;17.25;53.02;100658.44;2092789;28;19924;-48
2022/03/23 00:19:48;;;;;;;;;;;;;;;17.25;53.15;100663.88;2087950;28;20400;-48
2022/03/23 00:20:48;;;;;;;;;;;;;;;17.25;53.26;100658.44;2092898;28;19918;-51
2022/03/23 00:21:49;;;;;;;;;;;;;;;17.24;53.25;100653.97;2087118;28;19963;-50
2022/03/23 00:22:49;;;;;;;;;;;;;;;17.24;53.03;100662.13;2090362;28;19927;-49
2022/03/23 00:23:49;;;;;;;;;;;;;;;17.25;53.12;100663.88;2095180;28;19919;-52
2022/03/23 00:24:50;;;;;;;;;;;;;;;17.25;53.29;100664.75;2090736;28;20523;-48
2022/03/23 00:25:51;;;;;;;;;;;;;;;17.26;53.16;100662.88;2089221;28;19920;-51
2022/03/23 00:26:52;;;;;;;;;;;;;;;17.25;53.10;100663.88;2091363;28;20211;-48
2022/03/23 00:27:52;;;;;;;;;;;;;;;17.26;53.17;100661.00;2088667;28;19920;-49
2022/03/23 00:28:52;;;;;;;;;;;;;;;17.26;53.24;100665.59;2095573;28;20322;-49
2022/03/23 00:29:53;;;;;;;;;;;;;;;17.26;53.18;100660.16;2093170;28;19924;-50
2022/03/23 00:30:53;;;;;;;;;;;;;;;17.26;53.16;100665.59;2092310;28;20014;-49
2022/03/23 00:31:54;;;;;;;;;;;;;;;17.27;53.22;100657.31;2092397;28;19924;-48
2022/03/23 00:32:55;;;;;;;;;;;;;;;17.27;53.33;100668.22;2094116;28;19927;-49
2022/03/23 00:33:55;;;;;;;;;;;;;;;17.27;53.18;100661.88;2096060;28;19920;-50
2022/03/23 00:34:55;;;;;;;;;;;;;;;17.27;53.14;100661.88;2089700;28;19920;-49
2022/03/23 00:35:56;;;;;;;;;;;;;;;17.26;53.09;100658.28;2091968;28;20152;-49
2022/03/23 00:36:56;;;;;;;;;;;;;;;17.28;53.21;100655.44;2092592;28;20022;-50
2022/03/23 00:37:58;;;;;;;;;;;;;;;17.27;53.06;100664.59;2089707;28;20311;-48
2022/03/23 00:38:58;;;;;;;;;;;;;;;17.27;53.22;100659.16;2080663;28;20278;-52
2022/03/23 00:39:58;;;;;;;;;;;;;;;17.27;52.99;100667.31;2078779;28;19954;-48
2022/03/23 00:40:59;;;;;;;;;;;;;;;17.27;53.21;100656.41;2086595;28;20002;-48
2022/03/23 00:41:59;;;;;;;;;;;;;;;17.27;53.35;100656.41;2086610;28;19916;-49
2022/03/23 00:43:01;;;;;;;;;;;;;;;17.26;53.45;100661.00;2078766;28;20293;-50
2022/03/23 00:44:01;;;;;;;;;;;;;;;17.27;53.05;100657.31;2088990;28;20250;-48
2022/03/23 00:45:04;;;;;;;;;;;;;;;17.27;53.22;100657.31;2089288;28;19997;-48
2022/03/23 00:46:04;;;;;;;;;;;;;;;17.27;53.19;100653.69;2092184;28;20314;-48
2022/03/23 00:47:05;;;;;;;;;;;;;;;17.28;53.39;100652.72;2090499;28;19924;-50
2022/03/23 00:48:05;;;;;;;;;;;;;;;17.27;53.35;100646.41;2093816;28;19912;-48
2022/03/23 00:49:09;;;;;;;;;;;;;;;17.27;53.16;100656.41;2091831;28;20036;-48
2022/03/23 00:50:10;;;;;;;;;;;;;;;17.27;53.48;100656.41;2087795;28;19928;-50
2022/03/23 00:51:10;;;;;;;;;;;;;;;17.25;53.51;100648.41;2091121;28;20225;-50
2022/03/23 00:52:11;;;;;;;;;;;;;;;17.26;53.10;100649.25;2094521;28;19917;-48
2022/03/23 00:53:11;;;;;;;;;;;;;;;17.25;53.32;100652.97;2089383;28;19924;-49
2022/03/23 00:54:12;;;;;;;;;;;;;;;17.25;53.12;100647.53;2086405;28;19929;-48
2022/03/23 00:55:13;;;;;;;;;;;;;;;17.25;53.35;100642.09;2091753;28;19923;-50
2022/03/23 00:56:14;;;;;;;;;;;;;;;17.24;53.24;100643.91;2098554;28;19930;-49
2022/03/23 00:57:14;;;;;;;;;;;;;;;17.24;53.18;100645.78;2094268;28;19920;-52
2022/03/23 00:58:14;;;;;;;;;;;;;;;17.24;53.41;100640.34;2090924;28;19954;-51
2022/03/23 00:59:15;;;;;;;;;;;;;;;17.24;53.34;100648.50;2094729;28;19920;-49
2022/03/23 01:00:17;;;;;;;;;;;;;;;17.24;53.25;100646.66;2088368;28;19920;-50
2022/03/23 01:01:18;;;;;;;;;;;;;;;17.23;53.26;100646.78;2090959;28;20260;-51
2022/03/23 01:02:18;;;;;;;;;;;;;;;17.24;53.35;100645.78;2088026;28;20382;-48
2022/03/23 01:03:19;;;;;;;;;;;;;;;17.24;53.38;100645.78;2089085;28;19916;-47
2022/03/23 01:04:20;;;;;;;;;;;;;;;17.24;53.36;100646.66;2095707;28;19919;-48
2022/03/23 01:05:20;;;;;;;;;;;;;;;17.24;53.28;100640.34;2089197;28;20708;-48
2022/03/23 01:06:20;;;;;;;;;;;;;;;17.23;53.35;100639.47;2092735;28;19924;-49
2022/03/23 01:07:21;;;;;;;;;;;;;;;17.25;53.41;100644.81;2098834;28;19919;-51
2022/03/23 01:08:21;;;;;;;;;;;;;;;17.23;53.21;100642.19;2091549;28;19950;-52
2022/03/23 01:09:23;;;;;;;;;;;;;;;17.24;53.55;100635.75;2093599;28;19916;-48
2022/03/23 01:10:24;;;;;;;;;;;;;;;17.24;53.29;100637.59;2084824;28;19921;-48
2022/03/23 01:11:24;;;;;;;;;;;;;;;17.24;53.18;100645.78;2093787;28;19930;-51
2022/03/23 01:12:25;;;;;;;;;;;;;;;17.24;53.39;100643.06;2093317;28;19916;-49
2022/03/23 01:13:25;;;;;;;;;;;;;;;17.22;53.32;100642.31;2094257;28;19916;-51
2022/03/23 01:14:26;;;;;;;;;;;;;;;17.22;53.47;100632.31;2098193;28;19928;-48
2022/03/23 01:15:29;;;;;;;;;;;;;;;17.23;53.17;100634.03;2091096;28;20220;-49
2022/03/23 01:16:29;;;;;;;;;;;;;;;17.22;53.55;100636.88;2095778;28;19969;-48
2022/03/23 01:17:30;;;;;;;;;;;;;;;17.24;53.26;100640.34;2093320;28;20071;-49
2022/03/23 01:18:31;;;;;;;;;;;;;;;17.22;53.29;100639.59;2089238;28;19921;-48
2022/03/23 01:19:31;;;;;;;;;;;;;;;17.23;53.43;100638.63;2097464;28;20318;-49
2022/03/23 01:20:32;;;;;;;;;;;;;;;17.22;53.37;100631.41;2092512;28;21601;-49
2022/03/23 01:21:32;;;;;;;;;;;;;;;17.22;53.49;100636.88;2089310;28;19924;-48
2022/03/23 01:22:33;;;;;;;;;;;;;;;17.21;53.55;100635.13;2095422;28;19924;-52
2022/03/23 01:23:33;;;;;;;;;;;;;;;17.22;53.48;100631.41;2087535;28;19920;-52
2022/03/23 01:24:33;;;;;;;;;;;;;;;17.23;53.54;100635.88;2094105;28;19927;-50
2022/03/23 01:25:34;;;;;;;;;;;;;;;17.22;53.45;100631.41;2103085;28;20299;-49
2022/03/23 01:26:34;;;;;;;;;;;;;;;17.22;53.55;100634.13;2082590;28;19966;-51
2022/03/23 01:27:38;;;;;;;;;;;;;;;17.22;53.43;100636.88;2083746;28;19916;-50
2022/03/23 01:28:39;;;;;;;;;;;;;;;17.22;53.49;100636.88;2086916;28;19932;-50
2022/03/23 01:29:39;;;;;;;;;;;;;;;17.22;53.40;100642.31;2087278;28;20231;-49
2022/03/23 01:30:40;;;;;;;;;;;;;;;17.23;53.20;100635.88;2077266;28;19935;-51
2022/03/23 01:31:40;;;;;;;;;;;;;;;17.23;53.47;100633.16;2083662;28;20021;-52
2022/03/23 01:32:41;;;;;;;;;;;;;;;17.22;53.47;100636.88;2088802;28;19942;-50
2022/03/23 01:33:42;;;;;;;;;;;;;;;17.22;53.37;100637.75;2084643;28;19920;-48
2022/03/23 01:34:42;;;;;;;;;;;;;;;17.22;53.48;100636.88;2091356;28;19912;-48
2022/03/23 01:35:42;;;;;;;;;;;;;;;17.21;53.52;100630.56;2092909;28;20048;-49
2022/03/23 01:36:43;;;;;;;;;;;;;;;17.22;53.48;100623.25;2089128;28;20355;-50
2022/03/23 01:37:43;;;;;;;;;;;;;;;17.22;53.60;100629.59;2089344;28;20382;-48
2022/03/23 01:38:44;;;;;;;;;;;;;;;17.22;53.29;100631.41;2096864;28;19922;-52
2022/03/23 01:39:44;;;;;;;;;;;;;;;17.23;53.36;100622.28;2091638;28;19916;-48
2022/03/23 01:40:44;;;;;;;;;;;;;;;17.25;53.53;100623.00;2095539;28;19917;-48
2022/03/23 01:41:45;;;;;;;;;;;;;;;17.24;53.26;100618.53;2094140;28;19923;-47
2022/03/23 01:42:45;;;;;;;;;;;;;;;17.25;53.20;100617.56;2092858;28;19920;-50
2022/03/23 01:43:45;;;;;;;;;;;;;;;17.25;53.32;100625.75;2088555;28;19947;-48
2022/03/23 01:44:46;;;;;;;;;;;;;;;17.26;53.36;100616.56;2090815;28;19912;-47
2022/03/23 01:45:46;;;;;;;;;;;;;;;17.25;53.28;100615.69;2092261;28;19963;-49
2022/03/23 01:47:07;;;;;;;;;;;;;;;17.23;53.42;100612.22;2091379;28;20203;-48
2022/03/23 01:48:07;;;;;;;;;;;;;;;17.25;53.16;100620.28;2082888;28;19911;-47
2022/03/23 01:49:07;;;;;;;;;;;;;;;17.25;53.38;100606.66;2088032;28;19972;-47
2022/03/23 01:50:09;;;;;;;;;;;;;;;17.24;53.43;100618.53;2085781;28;19927;-51
2022/03/23 01:51:10;;;;;;;;;;;;;;;17.24;53.16;100607.63;2093262;28;20003;-50
2022/03/23 01:52:12;;;;;;;;;;;;;;;17.24;53.27;100613.09;2088633;28;19972;-47
2022/03/23 01:53:13;;;;;;;;;;;;;;;17.23;53.46;100612.22;2089864;28;20098;-51
2022/03/23 01:54:13;;;;;;;;;;;;;;;17.22;53.36;100615.97;2091576;28;20281;-51
2022/03/23 01:55:14;;;;;;;;;;;;;;;17.21;53.33;100613.34;2089538;28;20339;-47
2022/03/23 01:56:15;;;;;;;;;;;;;;;17.21;53.48;100608.75;2093594;28;20030;-49
2022/03/23 01:57:16;;;;;;;;;;;;;;;17.20;53.30;100600.69;2089606;28;19927;-49
2022/03/23 01:58:18;;;;;;;;;;;;;;;17.22;53.31;100609.63;2093476;28;20207;-47
2022/03/23 01:59:18;;;;;;;;;;;;;;;17.21;53.28;100613.34;2092509;28;19920;-50
2022/03/23 02:00:19;;;;;;;;;;;;;;;17.21;53.46;100602.44;2089513;28;19920;-47
2022/03/23 02:01:19;;;;;;;;;;;;;;;17.22;53.24;100604.16;2088314;28;20467;-50
2022/03/23 02:02:20;;;;;;;;;;;;;;;17.21;53.48;100602.44;2090077;28;19998;-50
2022/03/23 02:03:20;;;;;;;;;;;;;;;17.21;53.22;100602.44;2094561;28;19927;-49
2022/03/23 02:04:21;;;;;;;;;;;;;;;17.22;53.30;100598.72;2094480;28;19919;-47
2022/03/23 02:05:22;;;;;;;;;;;;;;;17.20;53.28;100600.69;2088146;28;19917;-48
2022/03/23 02:06:22;;;;;;;;;;;;;;;17.20;53.31;100600.69;2093872;28;19926;-47
2022/03/23 02:07:24;;;;;;;;;;;;;;;17.20;53.27;100597.97;2088686;28;20006;-47
2022/03/23 02:08:24;;;;;;;;;;;;;;;17.19;53.34;100594.38;2088367;28;19920;-48
2022/03/23 02:09:25;;;;;;;;;;;;;;;17.19;53.33;100598.97;2094254;28;20007;-48
2022/03/23 02:10:28;;;;;;;;;;;;;;;17.19;53.39;100598.97;2083971;28;19920;-48
2022/03/23 02:11:29;;;;;;;;;;;;;;;17.17;53.42;100590.06;2082562;28;19916;-48
2022/03/23 02:12:30;;;;;;;;;;;;;;;17.16;53.23;100588.34;2087903;28;20631;-50
2022/03/23 02:13:30;;;;;;;;;;;;;;;17.17;53.48;100592.78;2086074;28;20342;-47
2022/03/23 02:14:31;;;;;;;;;;;;;;;17.15;53.53;100592.94;2084138;28;20274;-51
2022/03/23 02:15:31;;;;;;;;;;;;;;;17.16;53.60;100588.34;2079062;28;20325;-48
2022/03/23 02:16:38;;;;;;;;;;;;;;;17.12;53.48;100583.16;2088060;28;19924;-51
2022/03/23 02:17:38;;;;;;;;;;;;;;;17.16;53.43;100593.78;2092897;28;19962;-49
2022/03/23 02:18:38;;;;;;;;;;;;;;;17.12;53.61;100588.59;2090308;28;19916;-48
2022/03/23 02:19:38;;;;;;;;;;;;;;;17.14;53.61;100592.03;2084257;28;19912;-48
2022/03/23 02:20:39;;;;;;;;;;;;;;;17.13;53.59;100590.31;2081299;28;20416;-50
2022/03/23 02:21:43;;;;;;;;;;;;;;;17.11;53.55;100583.25;2088682;28;19920;-48
2022/03/23 02:22:43;;;;;;;;;;;;;;;17.11;53.66;100586.84;2082473;28;19912;-48
2022/03/23 02:23:44;;;;;;;;;;;;;;;17.12;53.42;100594.03;2078462;28;19920;-48
2022/03/23 02:24:46;;;;;;;;;;;;;;;17.13;53.42;100584.00;2088649;28;19984;-49
2022/03/23 02:25:49;;;;;;;;;;;;;;;17.12;53.51;100583.16;2085463;28;19974;-50
2022/03/23 02:26:49;;;;;;;;;;;;;;;17.13;53.40;100579.41;2091208;28;19955;-49
2022/03/23 02:27:50;;;;;;;;;;;;;;;17.15;53.51;100584.75;2090560;28;19973;-47
2022/03/23 02:28:50;;;;;;;;;;;;;;;17.16;53.39;100582.88;2098280;28;20365;-48
2022/03/23 02:29:53;;;;;;;;;;;;;;;17.15;53.27;100576.59;2086744;28;20106;-48
2022/03/23 02:30:54;;;;;;;;;;;;;;;17.17;53.10;100584.59;2095906;28;19924;-48
2022/03/23 02:31:54;;;;;;;;;;;;;;;17.16;53.55;100578.31;2087954;28;19920;-48
2022/03/23 02:32:54;;;;;;;;;;;;;;;17.18;53.51;100580.91;2086290;28;19921;-50
2022/03/23 02:33:55;;;;;;;;;;;;;;;17.19;53.54;100579.91;2088232;28;20017;-49
2022/03/23 02:34:55;;;;;;;;;;;;;;;17.19;53.50;100574.47;2087761;28;20003;-51
2022/03/23 02:35:56;;;;;;;;;;;;;;;17.19;53.11;100571.75;2091565;28;20379;-47
2022/03/23 02:36:57;;;;;;;;;;;;;;;17.19;53.42;100575.31;2087221;28;19927;-49
2022/03/23 02:37:57;;;;;;;;;;;;;;;17.19;53.45;100574.47;2094674;28;19920;-50
2022/03/23 02:38:58;;;;;;;;;;;;;;;17.20;53.34;100573.44;2083859;28;20118;-48
2022/03/23 02:39:58;;;;;;;;;;;;;;;17.20;53.39;100573.44;2090341;28;19920;-49
2022/03/23 02:40:58;;;;;;;;;;;;;;;17.21;53.30;100569.75;2089271;28;20151;-47
2022/03/23 02:41:58;;;;;;;;;;;;;;;17.20;53.22;100565.28;2085505;28;20265;-50
2022/03/23 02:42:59;;;;;;;;;;;;;;;17.20;53.34;100562.56;2083703;28;19920;-51
2022/03/23 02:44:00;;;;;;;;;;;;;;;17.20;53.19;100560.72;2083244;28;19968;-47
2022/03/23 02:45:00;;;;;;;;;;;;;;;17.20;53.34;100562.56;2085745;28;19931;-48
2022/03/23 02:46:01;;;;;;;;;;;;;;;17.20;53.24;100560.72;2096777;28;19919;-47
2022/03/23 02:47:01;;;;;;;;;;;;;;;17.21;53.19;100558.84;2087614;28;19924;-48
2022/03/23 02:48:03;;;;;;;;;;;;;;;17.21;53.50;100561.59;2092355;28;20377;-49
2022/03/23 02:49:04;;;;;;;;;;;;;;;17.21;53.31;100558.84;2086386;28;19927;-51
2022/03/23 02:50:04;;;;;;;;;;;;;;;17.21;53.20;100565.16;2090273;28;20030;-48
2022/03/23 02:51:04;;;;;;;;;;;;;;;17.20;53.41;100558.00;2086405;28;19924;-48
2022/03/23 02:52:05;;;;;;;;;;;;;;;17.21;53.30;100564.31;2086934;28;19955;-49
2022/03/23 03:02:40;;;;;;;;;;;;;;;17.14;53.61;100544.88;2093264;28;19963;-48
2022/03/23 03:03:41;;;;;;;;;;;;;;;17.13;53.53;100545.88;2085997;28;19920;-48
2022/03/23 03:04:41;;;;;;;;;;;;;;;17.13;53.46;100552.19;2090019;28;20333;-48
2022/03/23 03:05:41;;;;;;;;;;;;;;;17.14;53.68;100550.31;2085187;28;20553;-50
2022/03/23 03:06:42;;;;;;;;;;;;;;;17.12;53.56;100550.47;2096280;28;20738;-48
2022/03/23 03:09:01;;;;;;;;;;;;;;;17.12;53.44;100546.84;2091551;28;20130;-47
2022/03/23 03:10:02;;;;;;;;;;;;;;;17.11;53.62;100546.00;2089294;28;19913;-48
2022/03/23 03:11:02;;;;;;;;;;;;;;;17.10;53.70;100547.00;2088970;28;19965;-48
2022/03/23 03:12:02;;;;;;;;;;;;;;;17.11;53.59;100547.84;2097003;28;19928;-50
2022/03/23 03:13:03;;;;;;;;;;;;;;;17.11;53.41;100547.84;2089792;28;19924;-48
2022/03/23 03:14:03;;;;;;;;;;;;;;;17.11;53.58;100548.72;2094321;28;19977;-49
2022/03/23 03:15:04;;;;;;;;;;;;;;;17.12;53.42;100550.47;2085141;28;19920;-50
2022/03/23 03:16:05;;;;;;;;;;;;;;;17.12;53.39;100547.75;2090856;28;20156;-54
2022/03/23 03:17:05;;;;;;;;;;;;;;;17.13;53.51;100552.19;2093603;28;19920;-51
2022/03/23 03:18:06;;;;;;;;;;;;;;;17.13;53.43;100544.00;2093771;28;19927;-50
2022/03/23 03:19:09;;;;;;;;;;;;;;;17.15;53.38;100549.34;2091380;28;19916;-49
2022/03/23 03:20:10;;;;;;;;;;;;;;;17.13;53.45;100545.88;2091874;28;19924;-49
2022/03/23 03:21:11;;;;;;;;;;;;;;;17.12;53.50;100549.56;2091671;28;19919;-48
2022/03/23 03:22:11;;;;;;;;;;;;;;;17.12;53.39;100545.00;2095136;28;19916;-49
2022/03/23 03:23:11;;;;;;;;;;;;;;;17.12;53.62;100545.00;2092021;28;19920;-49
2022/03/23 03:24:12;;;;;;;;;;;;;;;17.11;53.54;100548.72;2090891;28;19916;-49
2022/03/23 03:25:14;;;;;;;;;;;;;;;17.12;53.64;100544.13;2092042;28;20035;-48
2022/03/23 03:26:15;;;;;;;;;;;;;;;17.11;53.46;100551.44;2086642;28;20428;-48
2022/03/23 03:27:15;;;;;;;;;;;;;;;17.12;53.72;100546.84;2095318;28;19917;-47
2022/03/23 03:28:16;;;;;;;;;;;;;;;17.13;53.51;100552.19;2092287;28;19921;-49
2022/03/23 03:29:16;;;;;;;;;;;;;;;17.12;53.63;100550.47;2089646;28;19931;-46
2022/03/23 03:30:17;;;;;;;;;;;;;;;17.13;53.60;100546.72;2095820;28;19920;-48
2022/03/23 03:31:18;;;;;;;;;;;;;;;17.13;53.48;100557.63;2091691;28;19952;-48
2022/03/23 03:32:18;;;;;;;;;;;;;;;17.14;53.64;100562.06;2086497;28;19923;-49
2022/03/23 03:33:18;;;;;;;;;;;;;;;17.10;53.64;100549.72;2084983;28;20277;-48
2022/03/23 03:34:19;;;;;;;;;;;;;;;17.14;53.61;100553.03;2092720;28;19916;-48
2022/03/23 03:35:19;;;;;;;;;;;;;;;17.13;53.37;100554.91;2089048;28;20175;-48
2022/03/23 03:36:19;;;;;;;;;;;;;;;17.13;53.72;100557.63;2092958;28;19916;-49
2022/03/23 03:37:19;;;;;;;;;;;;;;;17.13;53.69;100552.19;2091216;28;19922;-48
2022/03/23 03:38:20;;;;;;;;;;;;;;;17.13;53.62;100557.63;2097481;28;19923;-48
2022/03/23 03:39:20;;;;;;;;;;;;;;;17.14;53.53;100558.50;2084545;28;19938;-48
2022/03/23 03:40:21;;;;;;;;;;;;;;;17.13;53.67;100554.91;2090106;28;19920;-49
2022/03/23 03:41:21;;;;;;;;;;;;;;;17.14;53.91;100547.59;2096409;28;20319;-47
2022/03/23 03:42:22;;;;;;;;;;;;;;;17.13;53.78;100546.72;2095201;28;19915;-49
2022/03/23 03:43:24;;;;;;;;;;;;;;;17.13;53.90;100551.31;2086458;28;19923;-48
2022/03/23 03:44:24;;;;;;;;;;;;;;;17.12;53.73;100547.75;2085390;28;19916;-49
2022/03/23 03:45:24;;;;;;;;;;;;;;;17.12;53.87;100555.91;2087134;28;19916;-48
2022/03/23 03:46:25;;;;;;;;;;;;;;;17.12;53.72;100555.91;2090941;28;19916;-48
2022/03/23 03:47:25;;;;;;;;;;;;;;;17.12;53.63;100561.34;2086188;28;20265;-47
2022/03/23 03:48:25;;;;;;;;;;;;;;;17.13;53.70;100554.91;2090710;28;19926;-48
2022/03/23 03:49:26;;;;;;;;;;;;;;;17.13;53.88;100557.63;2098284;28;19959;-48
2022/03/23 03:50:26;;;;;;;;;;;;;;;17.12;53.79;100555.91;2090806;28;19916;-48
2022/03/23 03:51:26;;;;;;;;;;;;;;;17.14;53.72;100558.50;2097580;28;19916;-48
2022/03/23 03:52:27;;;;;;;;;;;;;;;17.13;53.78;100562.22;2093090;28;19955;-48
2022/03/23 03:53:27;;;;;;;;;;;;;;;17.12;53.87;100561.34;2091764;28;19916;-48
2022/03/23 03:54:28;;;;;;;;;;;;;;;17.12;53.72;100553.19;2095056;28;19908;-49
2022/03/23 03:55:28;;;;;;;;;;;;;;;17.12;53.82;100561.34;2091297;28;19923;-49
2022/03/23 03:56:28;;;;;;;;;;;;;;;17.11;53.84;100554.16;2089137;28;19923;-52
2022/03/23 03:57:29;;;;;;;;;;;;;;;17.13;53.68;100557.63;2098752;28;20260;-48
2022/03/23 03:58:29;;;;;;;;;;;;;;;17.12;53.81;100561.34;2089386;28;19916;-47
2022/03/23 03:59:29;;;;;;;;;;;;;;;17.12;53.80;100561.34;2097177;28;19916;-48
2022/03/23 04:00:30;;;;;;;;;;;;;;;17.12;53.77;100561.34;2081390;28;19980;-48
2022/03/23 04:01:31;;;;;;;;;;;;;;;17.12;53.75;100553.19;2080905;28;19921;-50
2022/03/23 04:02:31;;;;;;;;;;;;;;;17.11;53.67;100565.06;2093173;28;19963;-48
2022/03/23 04:03:31;;;;;;;;;;;;;;;17.11;53.61;100562.34;2091161;28;20242;-49
2022/03/23 04:04:31;;;;;;;;;;;;;;;17.10;53.70;100557.88;2088085;28;19916;-52
2022/03/23 04:05:33;;;;;;;;;;;;;;;17.11;53.76;100558.75;2087950;28;19916;-47
2022/03/23 04:06:33;;;;;;;;;;;;;;;17.11;53.71;100559.59;2087009;28;19962;-48
2022/03/23 04:07:33;;;;;;;;;;;;;;;17.10;53.92;100563.34;2096313;28;20006;-48
2022/03/23 04:08:35;;;;;;;;;;;;;;;17.10;53.83;100560.63;2090753;28;19935;-49
2022/03/23 04:09:35;;;;;;;;;;;;;;;17.10;53.90;100562.47;2086301;28;20378;-48
2022/03/23 04:10:36;;;;;;;;;;;;;;;17.10;53.72;100555.16;2086446;28;19946;-49
2022/03/23 04:11:36;;;;;;;;;;;;;;;17.10;53.76;100557.88;2087930;28;19913;-47
2022/03/23 04:12:36;;;;;;;;;;;;;;;17.10;53.93;100557.03;2088136;28;20316;-47
2022/03/23 04:13:37;;;;;;;;;;;;;;;17.10;53.91;100560.63;2090791;28;19940;-49
2022/03/23 04:14:37;;;;;;;;;;;;;;;17.10;53.74;100557.03;2088986;28;20351;-48
2022/03/23 04:15:38;;;;;;;;;;;;;;;17.09;53.69;100553.41;2090062;28;20694;-48
2022/03/23 04:16:39;;;;;;;;;;;;;;;17.11;53.80;100558.75;2089118;28;20251;-48
2022/03/23 04:17:40;;;;;;;;;;;;;;;17.09;53.96;100561.59;2090093;28;19932;-48
2022/03/23 04:18:40;;;;;;;;;;;;;;;17.09;53.79;100556.13;2093990;28;19963;-47
2022/03/23 04:19:40;;;;;;;;;;;;;;;17.08;53.99;100562.59;2089577;28;19927;-47
2022/03/23 04:20:40;;;;;;;;;;;;;;;17.10;53.85;100562.47;2086038;28;19921;-47
2022/03/23 04:21:41;;;;;;;;;;;;;;;17.09;53.69;100556.13;2089002;28;19920;-49
2022/03/23 04:22:41;;;;;;;;;;;;;;;17.08;53.90;100553.56;2088583;28;20039;-47
2022/03/23 04:23:41;;;;;;;;;;;;;;;17.09;53.73;100566.16;2088620;28;19920;-47
2022/03/23 04:24:42;;;;;;;;;;;;;;;17.08;53.95;100559.00;2090839;28;20236;-49
2022/03/23 04:25:42;;;;;;;;;;;;;;;17.08;54.01;100565.31;2092341;28;19923;-47
2022/03/23 04:26:44;;;;;;;;;;;;;;;17.08;53.89;100565.31;2095091;28;20373;-47
2022/03/23 04:27:48;;;;;;;;;;;;;;;17.08;53.77;100559.88;2094439;28;19926;-47
2022/03/23 04:28:48;;;;;;;;;;;;;;;17.07;54.09;100563.56;2089912;28;20262;-47
2022/03/23 04:29:49;;;;;;;;;;;;;;;17.07;53.87;100566.28;2079006;28;19924;-48
2022/03/23 04:30:49;;;;;;;;;;;;;;;17.08;53.68;100564.47;2081247;28;20010;-47
2022/03/23 04:31:50;;;;;;;;;;;;;;;17.08;53.73;100564.47;2082909;28;19920;-48
2022/03/23 04:32:51;;;;;;;;;;;;;;;17.08;53.98;100568.03;2085779;28;20419;-50
2022/03/23 04:33:51;;;;;;;;;;;;;;;17.08;53.75;100565.31;2086926;28;19924;-48
2022/03/23 04:34:51;;;;;;;;;;;;;;;17.09;53.91;100561.59;2090712;28;19959;-50
2022/03/23 04:35:51;;;;;;;;;;;;;;;17.08;53.92;100570.75;2093248;28;20341;-51
2022/03/23 04:36:53;;;;;;;;;;;;;;;17.09;53.77;100560.72;2091080;28;19924;-51
2022/03/23 04:37:54;;;;;;;;;;;;;;;17.09;53.72;100564.31;2084175;28;19964;-47
2022/03/23 04:38:54;;;;;;;;;;;;;;;17.08;53.84;100565.31;2082112;28;19920;-48
2022/03/23 04:39:54;;;;;;;;;;;;;;;17.09;53.86;100558.00;2087953;28;20421;-48
2022/03/23 04:40:55;;;;;;;;;;;;;;;17.09;53.65;100563.44;2089429;28;19947;-48
2022/03/23 04:41:55;;;;;;;;;;;;;;;17.10;53.80;100568.78;2087807;28;20032;-49
2022/03/23 04:42:56;;;;;;;;;;;;;;;17.09;53.90;100560.72;2086496;28;19924;-48
2022/03/23 04:43:56;;;;;;;;;;;;;;;17.10;53.70;100557.88;2082191;28;20112;-47
2022/03/23 04:44:57;;;;;;;;;;;;;;;17.10;53.80;100552.44;2090889;28;19952;-47
2022/03/23 04:45:57;;;;;;;;;;;;;;;17.11;53.79;100564.19;2088718;28;19923;-48
2022/03/23 04:46:57;;;;;;;;;;;;;;;17.10;53.68;100557.88;2090394;28;19913;-47
2022/03/23 04:47:58;;;;;;;;;;;;;;;17.11;53.52;100565.06;2094127;28;19993;-47
2022/03/23 04:48:58;;;;;;;;;;;;;;;17.11;53.67;100566.91;2083709;28;20002;-48
2022/03/23 04:49:58;;;;;;;;;;;;;;;17.12;53.83;100564.09;2082611;28;20011;-50
2022/03/23 04:50:59;;;;;;;;;;;;;;;17.12;53.76;100565.91;2089635;28;20035;-48
2022/03/23 04:51:59;;;;;;;;;;;;;;;17.11;53.71;100565.06;2089455;28;19921;-48
2022/03/23 04:52:59;;;;;;;;;;;;;;;17.11;53.56;100562.34;2088790;28;20764;-52
2022/03/23 04:54:02;;;;;;;;;;;;;;;17.10;53.73;100560.63;2088729;28;20072;-48
2022/03/23 04:55:03;;;;;;;;;;;;;;;17.11;53.54;100570.50;2086928;28;19913;-52
2022/03/23 04:56:03;;;;;;;;;;;;;;;17.10;53.75;100563.34;2092607;28;20808;-48
2022/03/23 04:57:04;;;;;;;;;;;;;;;17.11;53.69;100565.06;2090564;28;19927;-48
2022/03/23 04:58:04;;;;;;;;;;;;;;;17.10;53.61;100563.34;2089996;28;20608;-48
2022/03/23 04:59:05;;;;;;;;;;;;;;;17.10;53.84;100568.78;2087534;28;20310;-49
2022/03/23 05:00:10;;;;;;;;;;;;;;;17.10;53.71;100568.78;2087631;28;19919;-49
2022/03/23 05:01:10;;;;;;;;;;;;;;;17.10;53.67;100567.94;2088911;28;19927;-48
2022/03/23 05:02:11;;;;;;;;;;;;;;;17.09;53.93;100564.31;2090566;28;19962;-47
2022/03/23 05:03:13;;;;;;;;;;;;;;;17.09;53.68;100566.16;2088655;28;20343;-50
2022/03/23 05:04:13;;;;;;;;;;;;;;;17.10;53.80;100568.78;2094232;28;20167;-50
2022/03/23 05:05:15;;;;;;;;;;;;;;;17.09;53.80;100567.03;2090070;28;19920;-48
2022/03/23 05:06:16;;;;;;;;;;;;;;;17.08;53.88;100565.31;2090578;28;19912;-49
2022/03/23 05:07:16;;;;;;;;;;;;;;;17.08;53.82;100570.75;2091501;28;19915;-49
2022/03/23 05:08:16;;;;;;;;;;;;;;;17.09;53.61;100571.63;2092422;28;19911;-50
2022/03/23 05:09:16;;;;;;;;;;;;;;;17.07;53.59;100569.00;2091684;28;19923;-49
2022/03/23 05:10:17;;;;;;;;;;;;;;;17.06;53.75;100575.47;2088116;28;20247;-47
2022/03/23 05:11:17;;;;;;;;;;;;;;;17.07;53.73;100573.59;2086977;28;19924;-48
2022/03/23 05:12:17;;;;;;;;;;;;;;;17.06;53.83;100570.00;2095789;28;19923;-48
2022/03/23 05:13:17;;;;;;;;;;;;;;;17.03;54.03;100567.56;2088998;28;20054;-47
2022/03/23 05:14:18;;;;;;;;;;;;;;;17.03;53.94;100567.56;2093640;28;19920;-50
2022/03/23 05:15:19;;;;;;;;;;;;;;;17.01;53.80;100569.53;2093113;28;19924;-48
2022/03/23 05:16:19;;;;;;;;;;;;;;;17.02;53.87;100570.38;2095262;28;19926;-50
2022/03/23 05:17:19;;;;;;;;;;;;;;;17.01;53.92;100571.41;2093488;28;19921;-48
2022/03/23 05:18:21;;;;;;;;;;;;;;;17.02;53.81;100573.97;2092580;28;19926;-48
2022/03/23 05:19:21;;;;;;;;;;;;;;;17.01;53.83;100574.97;2090937;28;19930;-49
2022/03/23 05:20:23;;;;;;;;;;;;;;;17.02;54.02;100578.56;2094153;28;19926;-49
2022/03/23 05:21:23;;;;;;;;;;;;;;;17.02;53.96;100570.38;2090119;28;20352;-48
2022/03/23 05:22:23;;;;;;;;;;;;;;;17.01;53.70;100574.97;2095490;28;19927;-51